sensor_id;sensor_type;location;lat;lon;timestamp;P1;durP1;ratioP1;P2;durP2;ratioP2
69463;SDS011;56665;41.106;16.688;2023-03-19T00:00:42;15.57;;;10.23;;
69463;SDS011;56665;41.106;16.688;2023-03-19T00:03:46;19.42;;;10.48;;
69463;SDS011;56665;41.106;16.688;2023-03-19T00:06:50;16.70;;;10.32;;
69463;SDS011;56665;41.106;16.688;2023-03-19T00:09:54;18.58;;;9.93;;
69463;SDS011;56665;41.106;16.688;2023-03-19T00:12:58;16.02;;;10.13;;
69463;SDS011;56665;41.106;16.688;2023-03-19T00:16:02;16.60;;;9.40;;
69463;SDS011;56665;41.106;16.688;2023-03-19T00:19:05;16.00;;;10.10;;
69463;SDS011;56665;41.106;16.688;2023-03-19T00:22:09;15.95;;;9.93;;
69463;SDS011;56665;41.106;16.688;2023-03-19T00:25:13;19.80;;;10.50;;
69463;SDS011;56665;41.106;16.688;2023-03-19T00:28:17;19.48;;;10.60;;
69463;SDS011;56665;41.106;16.688;2023-03-19T00:31:21;17.30;;;10.43;;
69463;SDS011;56665;41.106;16.688;2023-03-19T00:34:25;16.20;;;10.25;;
69463;SDS011;56665;41.106;16.688;2023-03-19T00:37:29;19.60;;;11.43;;
69463;SDS011;56665;41.106;16.688;2023-03-19T00:40:33;17.60;;;10.30;;
69463;SDS011;56665;41.106;16.688;2023-03-19T00:43:37;19.08;;;11.00;;
69463;SDS011;56665;41.106;16.688;2023-03-19T00:46:41;17.37;;;9.80;;
69463;SDS011;56665;41.106;16.688;2023-03-19T00:49:45;17.15;;;10.52;;
69463;SDS011;56665;41.106;16.688;2023-03-19T00:52:48;17.55;;;10.18;;
69463;SDS011;56665;41.106;16.688;2023-03-19T00:55:52;16.92;;;10.35;;
69463;SDS011;56665;41.106;16.688;2023-03-19T00:58:56;20.13;;;10.30;;
69463;SDS011;56665;41.106;16.688;2023-03-19T01:02:00;17.43;;;10.07;;
69463;SDS011;56665;41.106;16.688;2023-03-19T01:05:04;19.50;;;10.15;;
69463;SDS011;56665;41.106;16.688;2023-03-19T01:08:08;17.85;;;10.30;;
69463;SDS011;56665;41.106;16.688;2023-03-19T01:11:13;16.60;;;9.55;;
69463;SDS011;56665;41.106;16.688;2023-03-19T01:14:17;18.17;;;10.15;;
69463;SDS011;56665;41.106;16.688;2023-03-19T01:17:21;17.53;;;10.17;;
69463;SDS011;56665;41.106;16.688;2023-03-19T01:20:25;17.60;;;9.98;;
69463;SDS011;56665;41.106;16.688;2023-03-19T01:23:29;15.88;;;9.73;;
69463;SDS011;56665;41.106;16.688;2023-03-19T01:26:34;18.92;;;10.25;;
69463;SDS011;56665;41.106;16.688;2023-03-19T01:29:51;17.25;;;10.30;;
69463;SDS011;56665;41.106;16.688;2023-03-19T01:33:04;18.63;;;10.73;;
69463;SDS011;56665;41.106;16.688;2023-03-19T01:36:17;16.90;;;9.98;;
69463;SDS011;56665;41.106;16.688;2023-03-19T01:39:32;18.00;;;10.50;;
69463;SDS011;56665;41.106;16.688;2023-03-19T01:46:43;22.70;;;10.52;;
69463;SDS011;56665;41.106;16.688;2023-03-19T01:50:24;17.80;;;10.30;;
69463;SDS011;56665;41.106;16.688;2023-03-19T01:53:54;17.73;;;9.85;;
69463;SDS011;56665;41.106;16.688;2023-03-19T01:57:19;17.80;;;9.93;;
69463;SDS011;56665;41.106;16.688;2023-03-19T02:00:37;16.67;;;9.73;;
69463;SDS011;56665;41.106;16.688;2023-03-19T02:03:41;15.02;;;9.15;;
69463;SDS011;56665;41.106;16.688;2023-03-19T02:06:59;16.67;;;9.87;;
69463;SDS011;56665;41.106;16.688;2023-03-19T02:10:06;15.60;;;10.15;;
69463;SDS011;56665;41.106;16.688;2023-03-19T02:13:12;15.35;;;9.43;;
69463;SDS011;56665;41.106;16.688;2023-03-19T02:16:17;14.98;;;9.52;;
69463;SDS011;56665;41.106;16.688;2023-03-19T02:19:30;17.92;;;9.90;;
69463;SDS011;56665;41.106;16.688;2023-03-19T02:22:36;15.87;;;9.67;;
69463;SDS011;56665;41.106;16.688;2023-03-19T02:28:50;16.95;;;9.77;;
69463;SDS011;56665;41.106;16.688;2023-03-19T02:32:04;17.70;;;9.32;;
69463;SDS011;56665;41.106;16.688;2023-03-19T02:35:08;16.88;;;9.73;;
69463;SDS011;56665;41.106;16.688;2023-03-19T02:38:12;15.97;;;9.37;;
69463;SDS011;56665;41.106;16.688;2023-03-19T02:41:17;16.70;;;10.10;;
69463;SDS011;56665;41.106;16.688;2023-03-19T02:44:22;17.35;;;9.63;;
69463;SDS011;56665;41.106;16.688;2023-03-19T02:47:27;17.05;;;9.90;;
69463;SDS011;56665;41.106;16.688;2023-03-19T02:50:31;18.17;;;9.50;;
69463;SDS011;56665;41.106;16.688;2023-03-19T02:53:34;16.23;;;9.57;;
69463;SDS011;56665;41.106;16.688;2023-03-19T02:56:43;18.50;;;10.65;;
69463;SDS011;56665;41.106;16.688;2023-03-19T02:59:46;18.42;;;10.02;;
69463;SDS011;56665;41.106;16.688;2023-03-19T03:02:50;16.20;;;9.43;;
69463;SDS011;56665;41.106;16.688;2023-03-19T03:05:54;17.33;;;8.82;;
69463;SDS011;56665;41.106;16.688;2023-03-19T03:08:57;16.87;;;8.77;;
69463;SDS011;56665;41.106;16.688;2023-03-19T03:12:01;16.92;;;9.77;;
69463;SDS011;56665;41.106;16.688;2023-03-19T03:15:05;16.35;;;9.38;;
69463;SDS011;56665;41.106;16.688;2023-03-19T03:18:11;15.02;;;9.00;;
69463;SDS011;56665;41.106;16.688;2023-03-19T03:21:14;18.48;;;9.30;;
69463;SDS011;56665;41.106;16.688;2023-03-19T03:24:23;14.43;;;8.93;;
69463;SDS011;56665;41.106;16.688;2023-03-19T03:27:26;15.30;;;9.10;;
69463;SDS011;56665;41.106;16.688;2023-03-19T03:30:30;16.00;;;9.25;;
69463;SDS011;56665;41.106;16.688;2023-03-19T03:33:35;16.70;;;8.98;;
69463;SDS011;56665;41.106;16.688;2023-03-19T03:36:39;14.95;;;8.85;;
69463;SDS011;56665;41.106;16.688;2023-03-19T03:39:43;17.07;;;8.77;;
69463;SDS011;56665;41.106;16.688;2023-03-19T03:42:46;16.80;;;8.73;;
69463;SDS011;56665;41.106;16.688;2023-03-19T03:45:51;17.58;;;10.38;;
69463;SDS011;56665;41.106;16.688;2023-03-19T03:48:56;16.13;;;8.80;;
69463;SDS011;56665;41.106;16.688;2023-03-19T03:51:59;14.60;;;8.98;;
69463;SDS011;56665;41.106;16.688;2023-03-19T03:55:04;16.20;;;8.47;;
69463;SDS011;56665;41.106;16.688;2023-03-19T03:58:08;15.48;;;8.80;;
69463;SDS011;56665;41.106;16.688;2023-03-19T04:01:15;14.02;;;8.45;;
69463;SDS011;56665;41.106;16.688;2023-03-19T04:04:22;17.35;;;8.98;;
69463;SDS011;56665;41.106;16.688;2023-03-19T04:07:26;16.33;;;8.60;;
69463;SDS011;56665;41.106;16.688;2023-03-19T04:10:32;14.70;;;8.00;;
69463;SDS011;56665;41.106;16.688;2023-03-19T04:13:38;15.10;;;7.88;;
69463;SDS011;56665;41.106;16.688;2023-03-19T04:16:43;16.45;;;8.48;;
69463;SDS011;56665;41.106;16.688;2023-03-19T04:19:47;12.43;;;7.68;;
69463;SDS011;56665;41.106;16.688;2023-03-19T04:22:51;13.93;;;7.63;;
69463;SDS011;56665;41.106;16.688;2023-03-19T04:26:02;13.20;;;7.63;;
69463;SDS011;56665;41.106;16.688;2023-03-19T04:29:07;12.55;;;7.40;;
69463;SDS011;56665;41.106;16.688;2023-03-19T04:32:11;14.05;;;7.72;;
69463;SDS011;56665;41.106;16.688;2023-03-19T04:35:15;11.75;;;6.90;;
69463;SDS011;56665;41.106;16.688;2023-03-19T04:38:20;13.40;;;7.93;;
69463;SDS011;56665;41.106;16.688;2023-03-19T04:41:24;12.60;;;7.20;;
69463;SDS011;56665;41.106;16.688;2023-03-19T04:44:42;13.48;;;7.47;;
69463;SDS011;56665;41.106;16.688;2023-03-19T04:47:47;12.48;;;8.20;;
69463;SDS011;56665;41.106;16.688;2023-03-19T04:50:52;14.52;;;7.80;;
69463;SDS011;56665;41.106;16.688;2023-03-19T04:53:59;12.98;;;7.60;;
69463;SDS011;56665;41.106;16.688;2023-03-19T04:57:03;11.40;;;6.90;;
69463;SDS011;56665;41.106;16.688;2023-03-19T05:00:12;11.25;;;6.40;;
69463;SDS011;56665;41.106;16.688;2023-03-19T05:03:18;13.35;;;6.40;;
69463;SDS011;56665;41.106;16.688;2023-03-19T05:06:24;16.17;;;6.63;;
69463;SDS011;56665;41.106;16.688;2023-03-19T05:09:29;10.85;;;6.10;;
69463;SDS011;56665;41.106;16.688;2023-03-19T05:12:34;11.07;;;5.83;;
69463;SDS011;56665;41.106;16.688;2023-03-19T05:15:42;12.25;;;6.30;;
69463;SDS011;56665;41.106;16.688;2023-03-19T05:18:47;10.90;;;6.88;;
69463;SDS011;56665;41.106;16.688;2023-03-19T05:21:52;12.65;;;6.95;;
69463;SDS011;56665;41.106;16.688;2023-03-19T05:25:00;11.43;;;7.50;;
69463;SDS011;56665;41.106;16.688;2023-03-19T05:28:05;12.17;;;6.47;;
69463;SDS011;56665;41.106;16.688;2023-03-19T05:31:10;11.35;;;6.63;;
69463;SDS011;56665;41.106;16.688;2023-03-19T05:34:20;12.68;;;6.78;;
69463;SDS011;56665;41.106;16.688;2023-03-19T05:37:24;14.13;;;7.90;;
69463;SDS011;56665;41.106;16.688;2023-03-19T05:40:32;25.63;;;12.25;;
69463;SDS011;56665;41.106;16.688;2023-03-19T05:43:47;41.43;;;19.90;;
69463;SDS011;56665;41.106;16.688;2023-03-19T05:47:04;40.33;;;21.17;;
69463;SDS011;56665;41.106;16.688;2023-03-19T05:50:11;45.08;;;23.00;;
69463;SDS011;56665;41.106;16.688;2023-03-19T05:53:18;42.42;;;21.80;;
69463;SDS011;56665;41.106;16.688;2023-03-19T05:56:37;38.55;;;21.58;;
69463;SDS011;56665;41.106;16.688;2023-03-19T05:59:57;34.13;;;21.13;;
69463;SDS011;56665;41.106;16.688;2023-03-19T06:03:09;35.20;;;21.83;;
69463;SDS011;56665;41.106;16.688;2023-03-19T06:06:24;32.03;;;21.08;;
69463;SDS011;56665;41.106;16.688;2023-03-19T06:09:29;31.08;;;20.05;;
69463;SDS011;56665;41.106;16.688;2023-03-19T06:12:34;30.23;;;19.35;;
69463;SDS011;56665;41.106;16.688;2023-03-19T06:16:08;32.37;;;20.03;;
69463;SDS011;56665;41.106;16.688;2023-03-19T06:19:40;33.00;;;20.63;;
69463;SDS011;56665;41.106;16.688;2023-03-19T06:22:44;34.30;;;22.10;;
69463;SDS011;56665;41.106;16.688;2023-03-19T06:25:49;33.47;;;21.05;;
69463;SDS011;56665;41.106;16.688;2023-03-19T06:28:54;34.13;;;20.15;;
69463;SDS011;56665;41.106;16.688;2023-03-19T06:31:57;29.47;;;19.43;;
69463;SDS011;56665;41.106;16.688;2023-03-19T06:35:13;29.15;;;20.10;;
69463;SDS011;56665;41.106;16.688;2023-03-19T06:38:19;26.15;;;17.73;;
69463;SDS011;56665;41.106;16.688;2023-03-19T06:41:23;23.80;;;15.93;;
69463;SDS011;56665;41.106;16.688;2023-03-19T06:44:28;28.83;;;18.55;;
69463;SDS011;56665;41.106;16.688;2023-03-19T06:47:32;32.00;;;19.50;;
69463;SDS011;56665;41.106;16.688;2023-03-19T06:50:36;28.98;;;17.55;;
69463;SDS011;56665;41.106;16.688;2023-03-19T06:53:40;28.77;;;17.92;;
69463;SDS011;56665;41.106;16.688;2023-03-19T06:56:44;27.42;;;17.15;;
69463;SDS011;56665;41.106;16.688;2023-03-19T06:59:48;27.17;;;18.13;;
69463;SDS011;56665;41.106;16.688;2023-03-19T07:02:52;25.47;;;17.00;;
69463;SDS011;56665;41.106;16.688;2023-03-19T07:05:56;31.33;;;18.83;;
69463;SDS011;56665;41.106;16.688;2023-03-19T07:09:00;28.20;;;18.58;;
69463;SDS011;56665;41.106;16.688;2023-03-19T07:12:04;31.85;;;21.92;;
69463;SDS011;56665;41.106;16.688;2023-03-19T07:15:07;32.17;;;20.80;;
69463;SDS011;56665;41.106;16.688;2023-03-19T07:18:12;30.57;;;20.53;;
69463;SDS011;56665;41.106;16.688;2023-03-19T07:21:16;30.27;;;19.02;;
69463;SDS011;56665;41.106;16.688;2023-03-19T07:24:20;30.02;;;19.50;;
69463;SDS011;56665;41.106;16.688;2023-03-19T07:27:23;29.02;;;20.40;;
69463;SDS011;56665;41.106;16.688;2023-03-19T07:30:27;33.33;;;22.73;;
69463;SDS011;56665;41.106;16.688;2023-03-19T07:33:31;35.60;;;22.93;;
69463;SDS011;56665;41.106;16.688;2023-03-19T07:36:35;35.75;;;23.20;;
69463;SDS011;56665;41.106;16.688;2023-03-19T07:39:38;33.60;;;22.40;;
69463;SDS011;56665;41.106;16.688;2023-03-19T07:42:42;35.63;;;22.17;;
69463;SDS011;56665;41.106;16.688;2023-03-19T07:45:46;30.95;;;21.05;;
69463;SDS011;56665;41.106;16.688;2023-03-19T07:48:50;30.23;;;21.43;;
69463;SDS011;56665;41.106;16.688;2023-03-19T07:51:54;32.53;;;21.92;;
69463;SDS011;56665;41.106;16.688;2023-03-19T07:54:59;31.77;;;22.65;;
69463;SDS011;56665;41.106;16.688;2023-03-19T07:58:03;33.10;;;23.75;;
69463;SDS011;56665;41.106;16.688;2023-03-19T08:01:06;36.30;;;24.52;;
69463;SDS011;56665;41.106;16.688;2023-03-19T08:04:10;34.07;;;23.00;;
69463;SDS011;56665;41.106;16.688;2023-03-19T08:07:14;35.38;;;23.65;;
69463;SDS011;56665;41.106;16.688;2023-03-19T08:10:18;33.92;;;23.80;;
69463;SDS011;56665;41.106;16.688;2023-03-19T08:13:22;34.75;;;22.40;;
69463;SDS011;56665;41.106;16.688;2023-03-19T08:16:26;29.45;;;21.15;;
69463;SDS011;56665;41.106;16.688;2023-03-19T08:19:30;30.97;;;20.13;;
69463;SDS011;56665;41.106;16.688;2023-03-19T08:22:35;33.35;;;21.77;;
69463;SDS011;56665;41.106;16.688;2023-03-19T08:25:39;30.73;;;22.17;;
69463;SDS011;56665;41.106;16.688;2023-03-19T08:28:43;32.90;;;24.13;;
69463;SDS011;56665;41.106;16.688;2023-03-19T08:31:47;37.75;;;26.23;;
69463;SDS011;56665;41.106;16.688;2023-03-19T08:34:53;35.80;;;25.60;;
69463;SDS011;56665;41.106;16.688;2023-03-19T08:37:58;38.25;;;25.42;;
69463;SDS011;56665;41.106;16.688;2023-03-19T08:41:02;34.78;;;25.95;;
69463;SDS011;56665;41.106;16.688;2023-03-19T08:44:07;39.15;;;28.10;;
69463;SDS011;56665;41.106;16.688;2023-03-19T08:47:11;43.42;;;29.70;;
69463;SDS011;56665;41.106;16.688;2023-03-19T08:50:15;42.03;;;30.63;;
69463;SDS011;56665;41.106;16.688;2023-03-19T08:53:19;49.20;;;32.20;;
69463;SDS011;56665;41.106;16.688;2023-03-19T08:56:23;60.53;;;37.65;;
69463;SDS011;56665;41.106;16.688;2023-03-19T08:59:28;59.72;;;37.20;;
69463;SDS011;56665;41.106;16.688;2023-03-19T09:02:33;58.40;;;36.55;;
69463;SDS011;56665;41.106;16.688;2023-03-19T09:05:37;53.53;;;34.93;;
69463;SDS011;56665;41.106;16.688;2023-03-19T09:08:41;48.70;;;32.25;;
69463;SDS011;56665;41.106;16.688;2023-03-19T09:11:47;52.97;;;31.38;;
69463;SDS011;56665;41.106;16.688;2023-03-19T09:14:51;49.42;;;31.85;;
69463;SDS011;56665;41.106;16.688;2023-03-19T09:17:55;45.47;;;30.17;;
69463;SDS011;56665;41.106;16.688;2023-03-19T09:20:58;38.37;;;25.10;;
69463;SDS011;56665;41.106;16.688;2023-03-19T09:24:03;43.38;;;26.10;;
69463;SDS011;56665;41.106;16.688;2023-03-19T09:27:07;38.42;;;28.10;;
69463;SDS011;56665;41.106;16.688;2023-03-19T09:30:12;31.88;;;23.63;;
69463;SDS011;56665;41.106;16.688;2023-03-19T09:33:17;33.95;;;23.00;;
69463;SDS011;56665;41.106;16.688;2023-03-19T09:36:22;36.43;;;24.30;;
69463;SDS011;56665;41.106;16.688;2023-03-19T09:39:26;36.83;;;23.85;;
69463;SDS011;56665;41.106;16.688;2023-03-19T09:42:52;32.67;;;23.00;;
69463;SDS011;56665;41.106;16.688;2023-03-19T09:46:03;30.33;;;19.85;;
69463;SDS011;56665;41.106;16.688;2023-03-19T09:49:29;29.52;;;21.00;;
69463;SDS011;56665;41.106;16.688;2023-03-19T09:55:44;41.22;;;25.83;;
69463;SDS011;56665;41.106;16.688;2023-03-19T09:58:50;36.97;;;23.42;;
69463;SDS011;56665;41.106;16.688;2023-03-19T10:08:35;30.53;;;20.03;;
69463;SDS011;56665;41.106;16.688;2023-03-19T10:12:05;28.92;;;21.15;;
69463;SDS011;56665;41.106;16.688;2023-03-19T10:15:17;34.50;;;22.88;;
69463;SDS011;56665;41.106;16.688;2023-03-19T10:18:35;28.48;;;19.95;;
69463;SDS011;56665;41.106;16.688;2023-03-19T10:21:45;25.88;;;18.00;;
69463;SDS011;56665;41.106;16.688;2023-03-19T10:25:11;20.77;;;14.97;;
69463;SDS011;56665;41.106;16.688;2023-03-19T10:28:25;23.00;;;15.05;;
69463;SDS011;56665;41.106;16.688;2023-03-19T10:34:41;22.52;;;14.23;;
69463;SDS011;56665;41.106;16.688;2023-03-19T10:37:53;20.08;;;15.02;;
69463;SDS011;56665;41.106;16.688;2023-03-19T10:47:38;22.98;;;16.70;;
69463;SDS011;56665;41.106;16.688;2023-03-19T10:53:58;16.52;;;12.40;;
69463;SDS011;56665;41.106;16.688;2023-03-19T10:57:02;16.83;;;12.20;;
69463;SDS011;56665;41.106;16.688;2023-03-19T11:00:13;19.10;;;11.30;;
69463;SDS011;56665;41.106;16.688;2023-03-19T11:06:36;14.48;;;10.10;;
69463;SDS011;56665;41.106;16.688;2023-03-19T11:09:46;13.25;;;9.80;;
69463;SDS011;56665;41.106;16.688;2023-03-19T11:12:53;15.00;;;9.60;;
69463;SDS011;56665;41.106;16.688;2023-03-19T11:15:59;11.77;;;8.15;;
69463;SDS011;56665;41.106;16.688;2023-03-19T11:19:10;11.18;;;8.43;;
69463;SDS011;56665;41.106;16.688;2023-03-19T11:22:35;13.13;;;8.70;;
69463;SDS011;56665;41.106;16.688;2023-03-19T11:25:49;12.93;;;9.60;;
69463;SDS011;56665;41.106;16.688;2023-03-19T11:29:00;14.07;;;9.83;;
69463;SDS011;56665;41.106;16.688;2023-03-19T11:42:44;13.05;;;8.90;;
69463;SDS011;56665;41.106;16.688;2023-03-19T11:49:48;9.68;;;7.28;;
69463;SDS011;56665;41.106;16.688;2023-03-19T12:05:52;11.18;;;7.22;;
69463;SDS011;56665;41.106;16.688;2023-03-19T12:09:22;12.38;;;7.70;;
69463;SDS011;56665;41.106;16.688;2023-03-19T12:12:40;11.68;;;8.40;;
69463;SDS011;56665;41.106;16.688;2023-03-19T12:16:01;12.35;;;8.60;;
69463;SDS011;56665;41.106;16.688;2023-03-19T12:23:16;11.00;;;7.50;;
69463;SDS011;56665;41.106;16.688;2023-03-19T12:26:38;10.25;;;7.07;;
69463;SDS011;56665;41.106;16.688;2023-03-19T12:33:48;10.48;;;7.05;;
69463;SDS011;56665;41.106;16.688;2023-03-19T12:47:03;13.23;;;7.78;;
69463;SDS011;56665;41.106;16.688;2023-03-19T12:50:08;9.95;;;7.28;;
69463;SDS011;56665;41.106;16.688;2023-03-19T12:53:21;13.70;;;8.67;;
69463;SDS011;56665;41.106;16.688;2023-03-19T13:00:07;11.50;;;8.10;;
69463;SDS011;56665;41.106;16.688;2023-03-19T13:03:24;11.80;;;8.10;;
69463;SDS011;56665;41.106;16.688;2023-03-19T13:06:57;12.52;;;7.95;;
69463;SDS011;56665;41.106;16.688;2023-03-19T13:10:10;11.20;;;7.47;;
69463;SDS011;56665;41.106;16.688;2023-03-19T13:16:44;11.20;;;8.20;;
69463;SDS011;56665;41.106;16.688;2023-03-19T13:20:00;11.52;;;8.35;;
69463;SDS011;56665;41.106;16.688;2023-03-19T13:23:11;14.65;;;8.95;;
69463;SDS011;56665;41.106;16.688;2023-03-19T13:26:20;15.03;;;8.40;;
69463;SDS011;56665;41.106;16.688;2023-03-19T13:29:25;13.05;;;7.63;;
69463;SDS011;56665;41.106;16.688;2023-03-19T13:32:48;11.70;;;7.30;;
69463;SDS011;56665;41.106;16.688;2023-03-19T13:35:53;13.00;;;7.57;;
69463;SDS011;56665;41.106;16.688;2023-03-19T13:38:58;9.68;;;6.78;;
69463;SDS011;56665;41.106;16.688;2023-03-19T13:45:35;14.27;;;8.95;;
69463;SDS011;56665;41.106;16.688;2023-03-19T13:51:47;26.33;;;14.02;;
69463;SDS011;56665;41.106;16.688;2023-03-19T13:54:52;37.05;;;23.75;;
69463;SDS011;56665;41.106;16.688;2023-03-19T14:04:29;13.05;;;7.38;;
69463;SDS011;56665;41.106;16.688;2023-03-19T14:07:35;11.27;;;7.40;;
69463;SDS011;56665;41.106;16.688;2023-03-19T14:10:45;9.45;;;6.43;;
69463;SDS011;56665;41.106;16.688;2023-03-19T14:13:52;11.67;;;6.67;;
69463;SDS011;56665;41.106;16.688;2023-03-19T14:16:56;9.63;;;6.50;;
69463;SDS011;56665;41.106;16.688;2023-03-19T14:20:20;20.35;;;11.65;;
69463;SDS011;56665;41.106;16.688;2023-03-19T14:23:27;14.48;;;9.23;;
69463;SDS011;56665;41.106;16.688;2023-03-19T14:26:34;10.75;;;6.80;;
69463;SDS011;56665;41.106;16.688;2023-03-19T14:29:45;11.07;;;6.97;;
69463;SDS011;56665;41.106;16.688;2023-03-19T14:32:50;11.60;;;7.72;;
69463;SDS011;56665;41.106;16.688;2023-03-19T14:35:54;13.77;;;8.45;;
69463;SDS011;56665;41.106;16.688;2023-03-19T14:38:59;14.05;;;8.48;;
69463;SDS011;56665;41.106;16.688;2023-03-19T14:42:18;10.88;;;6.50;;
69463;SDS011;56665;41.106;16.688;2023-03-19T14:49:12;10.02;;;5.32;;
69463;SDS011;56665;41.106;16.688;2023-03-19T14:52:42;8.63;;;6.80;;
69463;SDS011;56665;41.106;16.688;2023-03-19T14:56:14;12.05;;;8.48;;
69463;SDS011;56665;41.106;16.688;2023-03-19T14:59:23;10.80;;;7.05;;
69463;SDS011;56665;41.106;16.688;2023-03-19T15:05:44;11.40;;;7.22;;
69463;SDS011;56665;41.106;16.688;2023-03-19T15:08:52;10.88;;;7.63;;
69463;SDS011;56665;41.106;16.688;2023-03-19T15:18:21;14.23;;;7.07;;
69463;SDS011;56665;41.106;16.688;2023-03-19T15:21:29;10.73;;;6.35;;
69463;SDS011;56665;41.106;16.688;2023-03-19T15:24:33;10.38;;;6.43;;
69463;SDS011;56665;41.106;16.688;2023-03-19T15:27:39;10.23;;;5.82;;
69463;SDS011;56665;41.106;16.688;2023-03-19T15:30:43;9.48;;;6.13;;
69463;SDS011;56665;41.106;16.688;2023-03-19T15:33:49;9.40;;;6.60;;
69463;SDS011;56665;41.106;16.688;2023-03-19T15:36:58;10.18;;;6.40;;
69463;SDS011;56665;41.106;16.688;2023-03-19T15:40:12;11.48;;;6.72;;
69463;SDS011;56665;41.106;16.688;2023-03-19T15:43:18;10.23;;;6.55;;
69463;SDS011;56665;41.106;16.688;2023-03-19T15:46:24;9.43;;;6.47;;
69463;SDS011;56665;41.106;16.688;2023-03-19T15:49:32;9.77;;;6.50;;
69463;SDS011;56665;41.106;16.688;2023-03-19T15:52:40;14.63;;;8.50;;
69463;SDS011;56665;41.106;16.688;2023-03-19T15:55:49;15.10;;;8.93;;
69463;SDS011;56665;41.106;16.688;2023-03-19T15:58:55;13.93;;;7.80;;
69463;SDS011;56665;41.106;16.688;2023-03-19T16:02:02;11.13;;;8.02;;
69463;SDS011;56665;41.106;16.688;2023-03-19T16:05:48;11.50;;;7.50;;
69463;SDS011;56665;41.106;16.688;2023-03-19T16:08:50;13.75;;;7.70;;
69463;SDS011;56665;41.106;16.688;2023-03-19T16:11:59;11.45;;;8.18;;
69463;SDS011;56665;41.106;16.688;2023-03-19T16:15:22;12.43;;;8.10;;
69463;SDS011;56665;41.106;16.688;2023-03-19T16:21:54;9.57;;;7.00;;
69463;SDS011;56665;41.106;16.688;2023-03-19T16:24:58;12.85;;;7.30;;
69463;SDS011;56665;41.106;16.688;2023-03-19T16:28:05;10.20;;;7.18;;
69463;SDS011;56665;41.106;16.688;2023-03-19T16:31:27;13.30;;;8.20;;
69463;SDS011;56665;41.106;16.688;2023-03-19T16:37:48;12.37;;;7.63;;
69463;SDS011;56665;41.106;16.688;2023-03-19T16:41:17;11.20;;;7.20;;
69463;SDS011;56665;41.106;16.688;2023-03-19T16:44:46;16.98;;;8.32;;
69463;SDS011;56665;41.106;16.688;2023-03-19T16:47:51;15.65;;;7.55;;
69463;SDS011;56665;41.106;16.688;2023-03-19T16:51:00;20.25;;;10.85;;
69463;SDS011;56665;41.106;16.688;2023-03-19T16:54:04;16.20;;;9.47;;
69463;SDS011;56665;41.106;16.688;2023-03-19T16:57:12;18.63;;;11.05;;
69463;SDS011;56665;41.106;16.688;2023-03-19T17:00:17;16.65;;;8.85;;
69463;SDS011;56665;41.106;16.688;2023-03-19T17:03:22;12.05;;;8.60;;
69463;SDS011;56665;41.106;16.688;2023-03-19T17:06:27;10.82;;;6.35;;
69463;SDS011;56665;41.106;16.688;2023-03-19T17:09:34;11.33;;;6.77;;
69463;SDS011;56665;41.106;16.688;2023-03-19T17:12:38;12.88;;;6.97;;
69463;SDS011;56665;41.106;16.688;2023-03-19T17:15:43;10.25;;;7.10;;
69463;SDS011;56665;41.106;16.688;2023-03-19T17:18:49;11.68;;;7.47;;
69463;SDS011;56665;41.106;16.688;2023-03-19T17:21:54;16.38;;;8.88;;
69463;SDS011;56665;41.106;16.688;2023-03-19T17:24:59;13.23;;;6.73;;
69463;SDS011;56665;41.106;16.688;2023-03-19T17:28:03;9.93;;;6.28;;
69463;SDS011;56665;41.106;16.688;2023-03-19T17:34:28;10.10;;;7.28;;
69463;SDS011;56665;41.106;16.688;2023-03-19T17:37:34;11.70;;;7.13;;
69463;SDS011;56665;41.106;16.688;2023-03-19T17:40:39;10.37;;;6.20;;
69463;SDS011;56665;41.106;16.688;2023-03-19T17:43:43;11.05;;;7.47;;
69463;SDS011;56665;41.106;16.688;2023-03-19T17:46:51;11.25;;;8.10;;
69463;SDS011;56665;41.106;16.688;2023-03-19T17:49:56;12.25;;;7.70;;
69463;SDS011;56665;41.106;16.688;2023-03-19T17:53:00;12.10;;;8.50;;
69463;SDS011;56665;41.106;16.688;2023-03-19T17:56:04;13.10;;;7.40;;
69463;SDS011;56665;41.106;16.688;2023-03-19T17:59:09;10.05;;;7.32;;
69463;SDS011;56665;41.106;16.688;2023-03-19T18:05:28;16.88;;;8.18;;
69463;SDS011;56665;41.106;16.688;2023-03-19T18:08:33;14.70;;;8.00;;
69463;SDS011;56665;41.106;16.688;2023-03-19T18:11:36;12.23;;;7.73;;
69463;SDS011;56665;41.106;16.688;2023-03-19T18:14:40;13.93;;;7.93;;
69463;SDS011;56665;41.106;16.688;2023-03-19T18:17:48;11.77;;;7.95;;
69463;SDS011;56665;41.106;16.688;2023-03-19T18:20:56;15.02;;;7.35;;
69463;SDS011;56665;41.106;16.688;2023-03-19T18:23:59;16.33;;;7.18;;
69463;SDS011;56665;41.106;16.688;2023-03-19T18:27:04;10.80;;;7.20;;
69463;SDS011;56665;41.106;16.688;2023-03-19T18:30:12;14.27;;;6.28;;
69463;SDS011;56665;41.106;16.688;2023-03-19T18:33:24;14.35;;;7.30;;
69463;SDS011;56665;41.106;16.688;2023-03-19T18:36:31;12.90;;;7.18;;
69463;SDS011;56665;41.106;16.688;2023-03-19T18:39:35;14.30;;;8.20;;
69463;SDS011;56665;41.106;16.688;2023-03-19T18:42:41;14.67;;;8.10;;
69463;SDS011;56665;41.106;16.688;2023-03-19T18:45:46;13.43;;;7.40;;
69463;SDS011;56665;41.106;16.688;2023-03-19T18:48:54;12.82;;;6.72;;
69463;SDS011;56665;41.106;16.688;2023-03-19T18:52:01;12.18;;;6.85;;
69463;SDS011;56665;41.106;16.688;2023-03-19T18:55:05;13.07;;;7.72;;
69463;SDS011;56665;41.106;16.688;2023-03-19T18:58:16;14.60;;;7.97;;
69463;SDS011;56665;41.106;16.688;2023-03-19T19:01:23;12.10;;;6.70;;
69463;SDS011;56665;41.106;16.688;2023-03-19T19:04:28;11.55;;;7.30;;
69463;SDS011;56665;41.106;16.688;2023-03-19T19:07:31;11.40;;;6.70;;
69463;SDS011;56665;41.106;16.688;2023-03-19T19:10:35;11.38;;;7.07;;
69463;SDS011;56665;41.106;16.688;2023-03-19T19:13:42;13.93;;;6.80;;
69463;SDS011;56665;41.106;16.688;2023-03-19T19:16:50;13.50;;;6.93;;
69463;SDS011;56665;41.106;16.688;2023-03-19T19:19:56;11.27;;;7.45;;
69463;SDS011;56665;41.106;16.688;2023-03-19T19:23:01;15.25;;;8.93;;
69463;SDS011;56665;41.106;16.688;2023-03-19T19:26:05;13.32;;;8.68;;
69463;SDS011;56665;41.106;16.688;2023-03-19T19:29:22;14.47;;;10.20;;
69463;SDS011;56665;41.106;16.688;2023-03-19T19:32:28;18.30;;;9.60;;
69463;SDS011;56665;41.106;16.688;2023-03-19T19:35:33;13.57;;;9.68;;
69463;SDS011;56665;41.106;16.688;2023-03-19T19:38:37;13.23;;;9.23;;
69463;SDS011;56665;41.106;16.688;2023-03-19T19:41:41;14.05;;;8.38;;
69463;SDS011;56665;41.106;16.688;2023-03-19T19:44:48;13.00;;;8.70;;
69463;SDS011;56665;41.106;16.688;2023-03-19T19:47:55;17.13;;;7.85;;
69463;SDS011;56665;41.106;16.688;2023-03-19T19:50:58;11.38;;;7.40;;
69463;SDS011;56665;41.106;16.688;2023-03-19T19:54:03;14.20;;;8.05;;
69463;SDS011;56665;41.106;16.688;2023-03-19T20:00:27;12.40;;;7.27;;
69463;SDS011;56665;41.106;16.688;2023-03-19T20:03:32;12.63;;;8.02;;
69463;SDS011;56665;41.106;16.688;2023-03-19T20:06:38;13.95;;;8.60;;
69463;SDS011;56665;41.106;16.688;2023-03-19T20:09:42;14.68;;;8.68;;
69463;SDS011;56665;41.106;16.688;2023-03-19T20:12:47;14.35;;;8.38;;
69463;SDS011;56665;41.106;16.688;2023-03-19T20:15:54;17.57;;;9.80;;
69463;SDS011;56665;41.106;16.688;2023-03-19T20:19:00;14.30;;;8.95;;